createdAt,value
2022-10-31T00:01:20.081Z,101869.22
2022-10-31T00:03:48.526Z,101876.47
2022-10-31T00:06:19.006Z,101872.53
2022-10-31T00:08:46.871Z,101864.66
2022-10-31T00:11:14.704Z,101866.69
2022-10-31T00:13:43.801Z,101859.81
2022-10-31T00:16:18.068Z,101860.91
2022-10-31T00:18:46.107Z,101851.63
2022-10-31T00:21:13.756Z,101865.66
2022-10-31T00:23:41.441Z,101862.28
2022-10-31T00:26:09.299Z,101853.13
2022-10-31T00:28:37.000Z,101860.84
2022-10-31T00:31:07.899Z,101855.53
2022-10-31T00:33:37.577Z,101863.66
2022-10-31T00:36:06.165Z,101864.75
2022-10-31T00:38:33.864Z,101858.59
2022-10-31T00:41:01.561Z,101864.75
2022-10-31T00:43:29.206Z,101865.59
2022-10-31T00:45:56.880Z,101866.59
2022-10-31T00:48:25.967Z,101869.25
2022-10-31T00:50:53.591Z,101878.31
2022-10-31T00:53:21.336Z,101870.31
2022-10-31T00:55:49.049Z,101870.59
2022-10-31T00:58:17.034Z,101882.09
2022-10-31T01:00:48.068Z,101877.88
2022-10-31T01:03:18.621Z,101886.81
2022-10-31T01:05:47.679Z,101873.91
2022-10-31T01:08:15.320Z,101874.97
2022-10-31T01:10:42.929Z,101878.38
2022-10-31T01:13:10.608Z,101884.69
2022-10-31T01:15:38.283Z,101884.94
2022-10-31T01:18:06.082Z,101893.19
2022-10-31T01:20:33.760Z,101888.34
2022-10-31T01:23:02.835Z,101890.31
2022-10-31T01:25:30.503Z,101896.84
2022-10-31T01:27:58.433Z,101894.19
2022-10-31T01:30:26.442Z,101889.13
2022-10-31T01:32:54.109Z,101892.75
2022-10-31T01:35:21.741Z,101886.69
2022-10-31T01:37:49.390Z,101890.31
2022-10-31T01:40:18.573Z,101883.72
2022-10-31T01:42:46.221Z,101881.06
2022-10-31T01:45:16.000Z,101882.13
2022-10-31T01:47:45.810Z,101884.91
2022-10-31T01:50:17.946Z,101881.69
2022-10-31T01:52:46.976Z,101880.22
2022-10-31T01:55:20.185Z,101878.75
2022-10-31T01:57:50.693Z,101877.34
2022-10-31T02:00:18.967Z,101888.25
2022-10-31T02:02:47.423Z,101889.09
2022-10-31T02:05:18.850Z,101891.97
2022-10-31T02:07:51.351Z,101875.22
2022-10-31T02:10:21.427Z,101893.44
2022-10-31T02:12:49.411Z,101891.63
2022-10-31T02:15:17.209Z,101897.34
2022-10-31T02:17:44.961Z,101899.38
2022-10-31T02:20:17.375Z,101895.03
2022-10-31T02:23:24.091Z,101894.19
2022-10-31T02:26:20.570Z,101881.81
2022-10-31T02:29:05.309Z,101867.81
2022-10-31T02:31:37.389Z,101874.19
2022-10-31T02:34:11.472Z,101873.25
2022-10-31T02:36:44.602Z,101875.31
2022-10-31T02:39:16.294Z,101862.50
2022-10-31T02:41:49.338Z,101875.78
2022-10-31T02:44:22.501Z,101877.38
2022-10-31T02:46:54.474Z,101873.00
2022-10-31T02:49:26.514Z,101874.22
2022-10-31T02:51:54.494Z,101876.78
2022-10-31T02:54:24.798Z,101876.88
2022-10-31T02:56:54.842Z,101868.06
2022-10-31T02:59:23.106Z,101880.75
2022-10-31T03:02:23.111Z,101875.69
2022-10-31T03:05:11.518Z,101879.19
2022-10-31T03:07:44.714Z,101871.22
2022-10-31T03:10:18.610Z,101873.03
2022-10-31T03:12:52.217Z,101889.69
2022-10-31T03:15:23.308Z,101881.72
2022-10-31T03:17:59.635Z,101888.00
2022-10-31T03:20:31.821Z,101888.72
2022-10-31T03:23:00.352Z,101883.41
2022-10-31T03:25:28.279Z,101877.25
2022-10-31T03:27:56.584Z,101879.19
2022-10-31T03:30:24.395Z,101881.94
2022-10-31T03:32:55.695Z,101868.41
2022-10-31T03:35:25.408Z,101878.56
2022-10-31T03:37:54.447Z,101885.84
2022-10-31T03:40:23.857Z,101873.50
2022-10-31T03:42:55.106Z,101871.06
2022-10-31T03:45:25.545Z,101866.97
2022-10-31T03:47:55.185Z,101874.97
2022-10-31T03:50:23.740Z,101871.94
2022-10-31T03:52:57.187Z,101868.66
2022-10-31T03:55:28.655Z,101881.22
2022-10-31T03:58:01.593Z,101878.56
2022-10-31T04:00:29.658Z,101885.81
2022-10-31T04:03:02.620Z,101884.34
2022-10-31T04:05:31.637Z,101873.59
2022-10-31T04:08:00.869Z,101892.69
2022-10-31T04:10:32.927Z,101900.78
2022-10-31T04:13:05.235Z,101885.78
2022-10-31T04:15:33.398Z,101892.91
2022-10-31T04:18:03.565Z,101902.69
2022-10-31T04:20:32.301Z,101892.44
2022-10-31T04:22:59.964Z,101897.88
2022-10-31T04:25:27.625Z,101893.72
2022-10-31T04:27:55.494Z,101892.38
2022-10-31T04:30:23.259Z,101891.66
2022-10-31T04:32:50.903Z,101897.94
2022-10-31T04:35:19.939Z,101892.75
2022-10-31T04:37:47.643Z,101893.09
2022-10-31T04:40:15.425Z,101890.56
2022-10-31T04:42:43.035Z,101887.38
2022-10-31T04:45:14.286Z,101889.19
2022-10-31T04:47:44.523Z,101897.41
2022-10-31T04:50:12.174Z,101900.19
2022-10-31T04:52:42.554Z,101894.88
2022-10-31T04:55:10.868Z,101904.53
2022-10-31T04:57:42.701Z,101902.09
2022-10-31T05:00:11.545Z,101907.81
2022-10-31T05:02:45.402Z,101899.13
2022-10-31T05:05:13.675Z,101894.06
2022-10-31T05:07:44.056Z,101889.59
2022-10-31T05:10:12.550Z,101889.47
2022-10-31T05:12:40.572Z,101890.78
2022-10-31T05:15:08.895Z,101883.88
2022-10-31T05:17:36.563Z,101888.47
2022-10-31T05:20:04.432Z,101887.97
2022-10-31T05:22:32.032Z,101888.69
2022-10-31T05:25:01.130Z,101883.75
2022-10-31T05:27:28.748Z,101878.44
2022-10-31T05:29:56.398Z,101880.25
2022-10-31T05:32:24.174Z,101871.75
2022-10-31T05:34:51.791Z,101877.06
2022-10-31T05:37:19.429Z,101867.66
2022-10-31T05:39:47.099Z,101864.13
2022-10-31T05:42:16.137Z,101859.38
2022-10-31T05:44:43.823Z,101875.72
2022-10-31T05:47:11.562Z,101870.41
2022-10-31T05:49:39.224Z,101862.56
2022-10-31T05:52:06.903Z,101875.13
2022-10-31T05:54:34.609Z,101868.69
2022-10-31T05:57:02.285Z,101869.06
2022-10-31T05:59:31.327Z,101881.16
2022-10-31T06:01:59.016Z,101868.66
2022-10-31T06:04:26.680Z,101865.75
2022-10-31T06:06:54.382Z,101863.13
2022-10-31T06:09:22.122Z,101864.81
2022-10-31T06:11:49.768Z,101870.75
2022-10-31T06:14:17.399Z,101872.31
2022-10-31T06:16:46.479Z,101869.66
2022-10-31T06:19:14.194Z,101886.09
2022-10-31T06:21:41.810Z,101881.53
2022-10-31T06:24:09.671Z,101879.59
2022-10-31T06:26:37.317Z,101884.69
2022-10-31T06:29:05.117Z,101876.00
2022-10-31T06:31:32.795Z,101882.25
2022-10-31T06:34:01.840Z,101876.09
2022-10-31T06:36:29.534Z,101877.06
2022-10-31T06:38:57.197Z,101876.84
2022-10-31T06:41:24.874Z,101879.41
2022-10-31T06:43:52.506Z,101886.47
2022-10-31T06:46:20.286Z,101877.38
2022-10-31T06:48:47.911Z,101885.63
2022-10-31T06:51:16.956Z,101891.69
2022-10-31T06:53:44.635Z,101893.16
2022-10-31T06:56:12.271Z,101901.13
2022-10-31T06:58:39.967Z,101900.16
2022-10-31T07:01:08.027Z,101900.16
2022-10-31T07:03:35.852Z,101898.47
2022-10-31T07:06:03.513Z,101896.75
2022-10-31T07:08:32.571Z,101893.16
2022-10-31T07:11:00.287Z,101900.16
2022-10-31T07:13:27.998Z,101892.09
2022-10-31T07:16:00.917Z,101889.94
2022-10-31T07:18:28.589Z,101897.78
2022-10-31T07:20:56.599Z,101902.16
2022-10-31T07:23:24.362Z,101894.19
2022-10-31T07:25:58.080Z,101891.31
2022-10-31T07:28:25.884Z,101898.19
2022-10-31T07:30:54.858Z,101903.38
2022-10-31T07:33:22.777Z,101895.19
2022-10-31T07:35:50.530Z,101901.22
2022-10-31T07:38:18.153Z,101898.38
2022-10-31T07:40:45.846Z,101907.06
2022-10-31T07:43:14.988Z,101906.81
2022-10-31T07:45:42.869Z,101902.22
2022-10-31T07:48:10.581Z,101900.47
2022-10-31T07:50:38.334Z,101900.22
2022-10-31T07:53:08.824Z,101908.69
2022-10-31T07:55:37.079Z,101898.72
2022-10-31T07:58:06.053Z,101899.94
2022-10-31T08:00:36.372Z,101901.38
2022-10-31T08:03:05.731Z,101897.56
2022-10-31T08:05:33.893Z,101898.91
2022-10-31T08:08:02.114Z,101898.53
2022-10-31T08:10:30.249Z,101894.69
2022-10-31T08:12:59.429Z,101896.91
2022-10-31T08:15:27.647Z,101892.19
2022-10-31T08:17:56.733Z,101890.88
2022-10-31T08:20:24.501Z,101887.13
2022-10-31T08:22:56.865Z,101888.34
2022-10-31T08:25:24.798Z,101892.47
2022-10-31T08:27:53.462Z,101883.91
2022-10-31T08:30:21.614Z,101880.75
2022-10-31T08:32:49.723Z,101878.81
2022-10-31T08:35:18.903Z,101878.09
2022-10-31T08:37:46.520Z,101877.63
2022-10-31T08:40:14.260Z,101882.56
2022-10-31T08:42:41.929Z,101880.50
2022-10-31T08:45:10.256Z,101882.91
2022-10-31T08:47:37.919Z,101881.72
2022-10-31T08:50:06.131Z,101881.47
2022-10-31T08:53:03.029Z,101890.16
2022-10-31T08:55:23.058Z,101877.34
2022-10-31T08:57:50.743Z,101872.28
2022-10-31T09:00:18.678Z,101881.47
2022-10-31T09:02:46.315Z,101878.06
2022-10-31T09:05:14.067Z,101873.94
2022-10-31T09:07:43.135Z,101869.94
2022-10-31T09:10:10.989Z,101874.63
2022-10-31T09:12:38.630Z,101872.88
2022-10-31T09:15:07.455Z,101882.91
2022-10-31T09:17:35.197Z,101878.41
2022-10-31T09:20:02.846Z,101866.56
2022-10-31T09:22:30.528Z,101871.38
2022-10-31T09:24:59.578Z,101866.25
2022-10-31T09:27:27.196Z,101868.28
2022-10-31T09:29:54.878Z,101857.94
2022-10-31T09:32:22.505Z,101862.03
2022-10-31T09:34:50.106Z,101859.81
2022-10-31T09:37:17.734Z,101860.53
2022-10-31T09:39:45.398Z,101863.19
2022-10-31T09:42:54.446Z,101848.19
2022-10-31T09:45:28.661Z,101849.63
2022-10-31T09:48:19.651Z,101850.38
2022-10-31T09:50:49.993Z,101850.28
2022-10-31T09:53:25.399Z,101852.16
2022-10-31T09:55:53.457Z,101844.78
2022-10-31T09:58:22.879Z,101837.25
2022-10-31T10:00:51.995Z,101838.56
2022-10-31T10:03:29.327Z,101836.06
2022-10-31T10:06:03.576Z,101841.13
2022-10-31T10:08:33.624Z,101840.03
2022-10-31T10:11:10.909Z,101820.09
2022-10-31T10:13:47.536Z,101828.84
2022-10-31T10:16:24.630Z,101835.56
2022-10-31T10:19:02.524Z,101829.88
2022-10-31T10:21:39.641Z,101834.06
2022-10-31T10:24:18.232Z,101835.66
2022-10-31T10:26:52.073Z,101821.16
2022-10-31T10:29:32.421Z,101810.91
2022-10-31T10:32:04.047Z,101803.31
2022-10-31T10:34:35.845Z,101806.22
2022-10-31T10:37:06.512Z,101787.97
2022-10-31T10:39:40.223Z,101791.47
2022-10-31T10:42:29.495Z,101797.66
2022-10-31T10:45:14.701Z,101795.97
2022-10-31T10:47:44.975Z,101790.63
2022-10-31T10:50:16.710Z,101795.13
2022-10-31T10:52:51.047Z,101793.72
2022-10-31T10:55:27.336Z,101783.88
2022-10-31T10:57:59.022Z,101784.88
2022-10-31T11:00:28.541Z,101768.84
2022-10-31T11:02:57.856Z,101758.88
2022-10-31T11:05:28.525Z,101751.03
2022-10-31T11:07:56.224Z,101766.47
2022-10-31T11:10:24.218Z,101765.91
2022-10-31T11:13:05.387Z,101762.81
2022-10-31T11:15:37.584Z,101756.63
2022-10-31T11:18:07.241Z,101751.56
2022-10-31T11:20:37.013Z,101749.59
2022-10-31T11:23:16.365Z,101756.63
2022-10-31T11:25:50.675Z,101743.16
2022-10-31T11:28:18.390Z,101744.00
2022-10-31T11:32:20.329Z,101739.66
2022-10-31T11:34:51.519Z,101730.81
2022-10-31T11:37:22.355Z,101722.38
2022-10-31T11:39:54.425Z,101722.09
2022-10-31T11:42:24.354Z,101723.78
2022-10-31T11:46:17.327Z,101699.06
2022-10-31T11:48:49.021Z,101689.94
2022-10-31T11:51:22.836Z,101691.78
2022-10-31T11:53:56.902Z,101688.13
2022-10-31T11:56:28.282Z,101670.13
2022-10-31T11:58:59.934Z,101671.81
2022-10-31T12:01:30.294Z,101663.66
2022-10-31T12:04:06.199Z,101649.91
2022-10-31T12:06:36.049Z,101632.50
2022-10-31T12:09:03.756Z,101633.38
2022-10-31T12:11:44.569Z,101624.53
2022-10-31T12:14:22.563Z,101633.66
2022-10-31T12:16:55.878Z,101628.84
2022-10-31T12:19:32.722Z,101624.34
2022-10-31T12:22:18.050Z,101621.00
2022-10-31T12:25:04.787Z,101619.31
2022-10-31T12:27:40.128Z,101609.47
2022-10-31T12:30:17.425Z,101609.47
2022-10-31T12:33:06.043Z,101613.81
2022-10-31T12:35:43.281Z,101611.69
2022-10-31T12:38:38.579Z,101610.28
2022-10-31T12:41:18.872Z,101604.66
2022-10-31T12:43:49.456Z,101596.06
2022-10-31T12:46:26.755Z,101582.72
2022-10-31T12:49:08.070Z,101580.44
2022-10-31T12:51:42.284Z,101569.94
2022-10-31T12:54:54.425Z,101562.75
2022-10-31T12:57:26.467Z,101562.75
2022-10-31T12:59:56.984Z,101557.72
2022-10-31T13:02:29.107Z,101554.34
2022-10-31T13:04:59.856Z,101543.66
2022-10-31T13:07:30.961Z,101533.97
2022-10-31T13:10:02.355Z,101521.19
2022-10-31T13:12:34.712Z,101518.94
2022-10-31T13:15:07.334Z,101523.28
2022-10-31T13:17:37.272Z,101516.44
2022-10-31T13:20:19.898Z,101525.69
2022-10-31T13:22:49.808Z,101514.00
2022-10-31T13:25:19.498Z,101508.78
2022-10-31T13:27:51.460Z,101516.69
2022-10-31T13:30:21.120Z,101498.13
2022-10-31T13:32:52.076Z,101486.31
2022-10-31T13:35:27.544Z,101486.31
2022-10-31T13:38:04.612Z,101476.63
2022-10-31T13:40:37.818Z,101482.25
2022-10-31T13:43:12.107Z,101459.69
2022-10-31T13:45:50.088Z,101455.19
2022-10-31T13:48:35.201Z,101454.56
2022-10-31T13:51:07.208Z,101447.53
2022-10-31T13:53:41.122Z,101453.72
2022-10-31T13:56:21.120Z,101446.03
2022-10-31T13:59:20.736Z,101448.13
2022-10-31T14:01:50.852Z,101452.63
2022-10-31T14:04:24.959Z,101441.13
2022-10-31T14:07:00.163Z,101435.41
2022-10-31T14:09:31.522Z,101423.75
2022-10-31T14:12:01.740Z,101420.38
2022-10-31T14:14:34.443Z,101411.66
2022-10-31T14:17:02.604Z,101404.38
2022-10-31T14:19:30.246Z,101392.00
2022-10-31T14:21:59.285Z,101398.03
2022-10-31T14:24:38.380Z,101393.69
2022-10-31T14:27:37.154Z,101385.81
2022-10-31T14:30:26.041Z,101375.84
2022-10-31T14:32:55.724Z,101374.03
2022-10-31T14:35:27.819Z,101368.28
2022-10-31T14:38:06.872Z,101370.94
2022-10-31T14:40:41.854Z,101363.63
2022-10-31T14:43:33.225Z,101365.31
2022-10-31T14:46:03.398Z,101349.59
2022-10-31T14:48:55.750Z,101363.34
2022-10-31T14:51:24.749Z,101370.94
2022-10-31T14:53:55.499Z,101370.94
2022-10-31T14:56:27.321Z,101369.97
2022-10-31T14:58:56.338Z,101366.28
2022-10-31T15:01:27.592Z,101351.75
2022-10-31T15:04:21.967Z,101354.63
2022-10-31T15:06:46.741Z,101352.94
2022-10-31T15:09:27.228Z,101329.09
2022-10-31T15:11:54.972Z,101310.56
2022-10-31T15:14:25.989Z,101315.06
2022-10-31T15:16:54.055Z,101314.50
2022-10-31T15:19:25.531Z,101306.66
2022-10-31T15:21:54.939Z,101295.47
2022-10-31T15:24:22.805Z,101305.50
2022-10-31T15:26:53.715Z,101313.66
2022-10-31T15:29:23.607Z,101301.31
2022-10-31T15:31:52.600Z,101292.31
2022-10-31T15:34:23.738Z,101287.81
2022-10-31T15:36:51.467Z,101271.97
2022-10-31T15:39:19.612Z,101278.16
2022-10-31T15:41:54.767Z,101278.00
2022-10-31T15:44:25.619Z,101268.63
2022-10-31T15:46:57.653Z,101284.03
2022-10-31T15:49:35.401Z,101276.88
2022-10-31T15:52:08.561Z,101265.19
2022-10-31T15:54:37.100Z,101276.03
2022-10-31T15:57:06.200Z,101273.47
2022-10-31T15:59:33.947Z,101274.47
2022-10-31T16:02:03.595Z,101271.13
2022-10-31T16:04:31.639Z,101259.78
2022-10-31T16:07:04.390Z,101239.31
2022-10-31T16:09:31.994Z,101245.44
2022-10-31T16:12:00.452Z,101232.25
2022-10-31T16:14:31.482Z,101232.25
2022-10-31T16:17:00.080Z,101244.06
2022-10-31T16:19:30.321Z,101235.66
2022-10-31T16:22:05.134Z,101241.00
2022-10-31T16:24:34.031Z,101226.81
2022-10-31T16:27:05.901Z,101223.31
2022-10-31T16:35:49.248Z,101214.31
2022-10-31T16:38:17.115Z,101206.31
2022-10-31T16:40:45.432Z,101199.97
2022-10-31T16:43:14.577Z,101201.97
2022-10-31T16:45:44.994Z,101192.25
2022-10-31T16:48:15.804Z,101192.97
2022-10-31T16:50:43.676Z,101194.66
2022-10-31T16:53:15.558Z,101190.97
2022-10-31T16:55:47.208Z,101186.47
2022-10-31T16:58:18.701Z,101195.06
2022-10-31T17:00:46.514Z,101191.53
2022-10-31T17:03:14.151Z,101188.72
2022-10-31T17:05:42.002Z,101187.06
2022-10-31T17:08:09.655Z,101192.41
2022-10-31T17:10:39.021Z,101193.38
2022-10-31T17:13:08.450Z,101180.97
2022-10-31T17:15:41.053Z,101180.03
2022-10-31T17:20:32.643Z,101164.00
2022-10-31T17:23:00.944Z,101178.06
2022-10-31T17:25:31.802Z,101152.38
2022-10-31T17:27:59.975Z,101155.03
2022-10-31T17:30:27.597Z,101153.34
2022-10-31T17:32:55.564Z,101152.47
2022-10-31T17:35:23.942Z,101147.28
2022-10-31T17:37:53.026Z,101150.97
2022-10-31T17:40:22.904Z,101148.28
2022-10-31T17:42:51.439Z,101151.94
2022-10-31T17:45:19.116Z,101148.63
2022-10-31T17:47:48.070Z,101148.63
2022-10-31T17:50:15.968Z,101129.16
2022-10-31T17:52:43.681Z,101127.28
2022-10-31T17:55:12.805Z,101139.91
2022-10-31T17:57:40.800Z,101130.06
2022-10-31T18:00:10.521Z,101119.38
2022-10-31T18:02:38.335Z,101122.22
2022-10-31T18:05:06.967Z,101112.22
2022-10-31T18:07:34.982Z,101120.22
2022-10-31T18:10:02.928Z,101108.22
2022-10-31T18:12:32.377Z,101113.53
2022-10-31T18:15:00.240Z,101108.88
2022-10-31T18:17:27.879Z,101106.22
2022-10-31T18:19:55.677Z,101094.19
2022-10-31T18:22:23.375Z,101102.41
2022-10-31T18:24:50.957Z,101094.41
2022-10-31T18:27:18.561Z,101095.25
2022-10-31T18:29:47.587Z,101091.59
2022-10-31T18:32:15.219Z,101098.06
2022-10-31T18:34:42.870Z,101097.91
2022-10-31T18:37:10.567Z,101094.53
2022-10-31T18:39:38.172Z,101090.03
2022-10-31T18:42:05.890Z,101093.56
2022-10-31T18:44:34.301Z,101084.59
2022-10-31T18:47:03.359Z,101080.91
2022-10-31T18:49:32.818Z,101070.25
2022-10-31T18:52:00.798Z,101064.19
2022-10-31T18:54:28.520Z,101060.56
2022-10-31T18:56:56.685Z,101065.91
2022-10-31T18:59:24.339Z,101063.25
2022-10-31T19:01:52.078Z,101064.06
2022-10-31T19:04:21.229Z,101052.56
2022-10-31T19:06:48.959Z,101050.88
2022-10-31T19:09:16.579Z,101056.19
2022-10-31T19:11:44.199Z,101055.53
2022-10-31T19:14:13.716Z,101056.53
2022-10-31T19:16:41.728Z,101047.84
2022-10-31T19:19:10.684Z,101037.19
2022-10-31T19:21:39.705Z,101032.13
2022-10-31T19:24:07.509Z,101026.81
2022-10-31T19:26:35.370Z,101032.13
2022-10-31T19:29:03.066Z,101010.13
2022-10-31T19:31:30.807Z,101012.78
2022-10-31T19:33:58.470Z,101010.13
2022-10-31T19:36:26.751Z,101007.47
2022-10-31T19:38:55.800Z,101005.78
2022-10-31T19:41:26.238Z,101005.13
2022-10-31T19:43:54.479Z,101001.06
2022-10-31T19:46:47.851Z,101007.09
2022-10-31T19:49:11.416Z,101005.41
2022-10-31T19:51:39.082Z,101015.09
2022-10-31T19:54:08.395Z,101007.25
2022-10-31T19:56:36.029Z,101003.06
2022-10-31T19:59:04.032Z,100999.56
2022-10-31T20:01:31.737Z,100991.72
2022-10-31T20:03:59.448Z,101005.06
2022-10-31T20:06:28.831Z,101002.41
2022-10-31T20:08:57.214Z,100998.91
2022-10-31T20:11:27.704Z,100998.06
2022-10-31T20:13:56.280Z,100997.19
2022-10-31T20:16:24.383Z,100997.06
2022-10-31T20:18:52.272Z,100992.03
2022-10-31T20:21:22.200Z,100999.19
2022-10-31T20:23:49.928Z,100995.69
2022-10-31T20:26:20.676Z,100996.69
2022-10-31T20:28:49.684Z,100991.50
2022-10-31T20:31:19.388Z,100984.44
2022-10-31T20:33:47.240Z,100989.97
2022-10-31T20:36:14.971Z,100997.97
2022-10-31T20:38:43.290Z,100986.63
2022-10-31T20:41:11.915Z,100984.97
2022-10-31T20:43:39.636Z,100994.78
2022-10-31T20:46:11.590Z,100984.97
2022-10-31T20:48:39.409Z,100989.63
2022-10-31T20:51:08.804Z,100990.63
2022-10-31T20:53:36.538Z,100985.28
2022-10-31T20:56:07.469Z,100988.94
2022-10-31T20:58:36.126Z,100979.97
2022-10-31T21:01:04.285Z,100978.28
2022-10-31T21:03:36.418Z,100982.91
2022-10-31T21:06:06.745Z,100977.75
2022-10-31T21:08:34.612Z,100970.75
2022-10-31T21:11:05.943Z,100970.00
2022-10-31T21:13:40.525Z,100979.50
2022-10-31T21:16:10.760Z,100972.19
2022-10-31T21:18:41.199Z,100972.19
2022-10-31T21:21:09.676Z,100975.84
2022-10-31T21:23:37.401Z,100961.00
2022-10-31T21:26:08.342Z,100970.00
2022-10-31T21:28:36.145Z,100963.97
2022-10-31T21:31:07.673Z,100963.47
2022-10-31T21:33:35.583Z,100961.94
2022-10-31T21:36:05.775Z,100957.75
2022-10-31T21:38:34.195Z,100953.41
2022-10-31T21:41:02.328Z,100945.75
2022-10-31T21:43:30.331Z,100953.03
2022-10-31T21:46:03.514Z,100945.50
2022-10-31T21:48:31.192Z,100942.19
2022-10-31T21:50:58.834Z,100948.34
2022-10-31T21:53:45.553Z,100933.63
2022-10-31T21:56:13.214Z,100926.63
2022-10-31T21:58:40.880Z,100932.97
2022-10-31T22:01:08.724Z,100929.75
2022-10-31T22:03:36.915Z,100927.91
2022-10-31T22:06:04.834Z,100921.91
2022-10-31T22:08:34.293Z,100915.59
2022-10-31T22:11:03.007Z,100898.56
2022-10-31T22:13:31.379Z,100906.69
2022-10-31T22:16:01.628Z,100911.41
2022-10-31T22:18:29.661Z,100897.94
2022-10-31T22:21:02.314Z,100893.28
2022-10-31T22:23:30.859Z,100891.31
2022-10-31T22:26:03.585Z,100879.66
2022-10-31T22:28:31.546Z,100880.50
2022-10-31T22:30:59.498Z,100885.84
2022-10-31T22:33:27.198Z,100876.00
2022-10-31T22:35:54.900Z,100878.69
2022-10-31T22:38:22.538Z,100871.53
2022-10-31T22:40:50.225Z,100866.19
2022-10-31T22:43:19.273Z,100870.69
2022-10-31T22:45:54.911Z,100857.19
2022-10-31T22:48:22.608Z,100856.22
2022-10-31T22:50:50.235Z,100843.72
2022-10-31T22:53:17.843Z,100848.91
2022-10-31T22:55:45.668Z,100847.09
2022-10-31T22:58:13.861Z,100841.75
2022-10-31T23:00:43.093Z,100841.75
2022-10-31T23:03:10.776Z,100845.09
2022-10-31T23:05:38.423Z,100838.94
2022-10-31T23:08:06.599Z,100844.94
2022-10-31T23:10:35.733Z,100845.94
2022-10-31T23:13:20.993Z,100819.44
2022-10-31T23:15:49.991Z,100826.44
2022-10-31T23:18:36.628Z,100822.09
2022-10-31T23:21:06.485Z,100819.28
2022-10-31T23:23:35.298Z,100811.44
2022-10-31T23:26:20.671Z,100805.28
2022-10-31T23:28:48.266Z,100807.94
2022-10-31T23:31:17.512Z,100812.56
2022-10-31T23:33:45.199Z,100809.09
2022-10-31T23:36:12.850Z,100817.91
2022-10-31T23:38:40.489Z,100819.75
2022-10-31T23:41:08.118Z,100817.78
2022-10-31T23:43:35.779Z,100821.28
2022-10-31T23:46:03.421Z,100830.94
2022-10-31T23:48:32.452Z,100820.44
2022-10-31T23:51:00.077Z,100815.63
2022-10-31T23:53:27.742Z,100813.94
2022-10-31T23:55:55.879Z,100813.13
2022-10-31T23:58:23.562Z,100803.28
